Time;durP1;ratioP1;P1;durP2;ratioP2;P2;SDS_P1;SDS_P2;PMS_P1;PMS_P2;Temp;Humidity;BMP_temperature;BMP_pressure;BME280_temperature;BME280_humidity;BME280_pressure;Samples;Min_cycle;Max_cycle;Signal;HPM_P1;HPM_P2
2023/07/21 00:04:00;;;;;;;0.50;0.38;;;;;;;;;;10112239;28;20752;-79
2023/07/21 00:09:05;;;;;;;0.40;0.40;;;;;;;;;;10119237;28;20448;-78
2023/07/21 00:14:07;;;;;;;0.40;0.40;;;;;;;;;;10115787;28;20781;-78
2023/07/21 00:19:08;;;;;;;0.47;0.47;;;;;;;;;;10106438;28;20216;-80
2023/07/21 00:24:11;;;;;;;0.60;0.60;;;;;;;;;;10126375;28;20534;-75
2023/07/21 00:29:12;;;;;;;0.40;0.40;;;;;;;;;;10108814;28;21177;-80
2023/07/21 00:34:13;;;;;;;0.40;0.40;;;;;;;;;;10131056;28;20268;-76
2023/07/21 00:39:14;;;;;;;0.47;0.47;;;;;;;;;;10103145;28;20225;-80
2023/07/21 00:44:15;;;;;;;0.40;0.40;;;;;;;;;;10125165;28;20733;-77
2023/07/21 00:49:16;;;;;;;0.73;0.40;;;;;;;;;;10118113;28;20343;-80
2023/07/21 00:54:17;;;;;;;0.55;0.32;;;;;;;;;;10113450;28;20391;-80
2023/07/21 00:59:18;;;;;;;0.30;0.30;;;;;;;;;;10079268;28;20222;-80
2023/07/21 01:04:20;;;;;;;0.30;0.30;;;;;;;;;;10118612;28;21383;-79
2023/07/21 01:09:22;;;;;;;0.28;0.28;;;;;;;;;;10121898;28;20239;-79
2023/07/21 01:14:23;;;;;;;0.30;0.30;;;;;;;;;;10096258;28;21313;-78
2023/07/21 01:19:26;;;;;;;0.47;0.45;;;;;;;;;;10121185;28;20742;-77
2023/07/21 01:24:36;;;;;;;0.47;0.47;;;;;;;;;;10105430;28;20231;-79
2023/07/21 01:29:40;;;;;;;0.30;0.30;;;;;;;;;;10107808;28;20910;-74
2023/07/21 01:34:43;;;;;;;0.35;0.35;;;;;;;;;;10109929;28;20532;-79
2023/07/21 01:39:44;;;;;;;0.93;0.40;;;;;;;;;;10105751;28;20251;-78
2023/07/21 01:44:47;;;;;;;0.50;0.50;;;;;;;;;;10112392;28;20231;-79
2023/07/21 01:49:48;;;;;;;0.35;0.35;;;;;;;;;;10117853;28;20663;-77
2023/07/21 01:54:57;;;;;;;1.35;0.30;;;;;;;;;;10118685;28;20427;-79
2023/07/21 01:59:59;;;;;;;0.40;0.40;;;;;;;;;;10103941;28;20220;-77
2023/07/21 02:05:01;;;;;;;0.75;0.30;;;;;;;;;;10122947;28;20512;-79
2023/07/21 02:10:04;;;;;;;0.47;0.40;;;;;;;;;;10106996;28;20784;-78
2023/07/21 02:15:09;;;;;;;0.35;0.35;;;;;;;;;;10114091;28;20462;-76
2023/07/21 02:20:10;;;;;;;1.38;0.60;;;;;;;;;;10089695;28;20442;-78
2023/07/21 02:25:13;;;;;;;0.38;0.38;;;;;;;;;;10107175;28;20587;-79
2023/07/21 02:30:14;;;;;;;0.40;0.40;;;;;;;;;;10116372;28;20228;-80
2023/07/21 02:35:15;;;;;;;0.75;0.55;;;;;;;;;;10108584;28;20904;-80
2023/07/21 02:40:17;;;;;;;0.65;0.40;;;;;;;;;;10104159;28;21701;-80
2023/07/21 02:45:18;;;;;;;0.55;0.40;;;;;;;;;;10107550;28;20267;-78
2023/07/21 02:50:20;;;;;;;0.40;0.40;;;;;;;;;;10112586;28;21691;-78
2023/07/21 02:55:22;;;;;;;0.60;0.60;;;;;;;;;;10109929;28;21428;-80
2023/07/21 03:00:24;;;;;;;0.50;0.50;;;;;;;;;;10118670;28;20210;-79
2023/07/21 03:05:36;;;;;;;0.50;0.50;;;;;;;;;;10096794;28;22019;-79
2023/07/21 03:10:37;;;;;;;2.92;0.70;;;;;;;;;;10110927;28;20779;-79
2023/07/21 03:15:40;;;;;;;0.32;0.30;;;;;;;;;;10094337;28;20905;-80
2023/07/21 03:20:43;;;;;;;0.55;0.50;;;;;;;;;;10107423;28;21375;-79
2023/07/21 03:25:46;;;;;;;0.70;0.60;;;;;;;;;;10104254;28;22136;-77
2023/07/21 03:31:01;;;;;;;0.63;0.40;;;;;;;;;;10111320;28;20256;-79
2023/07/21 03:36:08;;;;;;;0.50;0.50;;;;;;;;;;10115302;28;20738;-79
2023/07/21 03:41:10;;;;;;;0.40;0.40;;;;;;;;;;10095062;28;20216;-79
2023/07/21 03:46:12;;;;;;;3.22;0.50;;;;;;;;;;10127379;28;20978;-79
2023/07/21 03:51:34;;;;;;;0.60;0.60;;;;;;;;;;10080630;28;21232;-79
2023/07/21 03:56:36;;;;;;;1.67;0.50;;;;;;;;;;10082039;28;20438;-79
2023/07/21 04:01:37;;;;;;;0.68;0.68;;;;;;;;;;10110882;28;20331;-79
2023/07/21 04:06:39;;;;;;;0.60;0.60;;;;;;;;;;10102410;28;20305;-80
2023/07/21 04:11:43;;;;;;;0.40;0.40;;;;;;;;;;10102419;28;20232;-78
2023/07/21 04:16:46;;;;;;;0.30;0.30;;;;;;;;;;10108407;28;20776;-78
2023/07/21 04:21:47;;;;;;;0.60;0.60;;;;;;;;;;10106067;28;20513;-78
2023/07/21 04:26:48;;;;;;;0.52;0.52;;;;;;;;;;10107045;28;20305;-79
2023/07/21 04:31:49;;;;;;;0.63;0.43;;;;;;;;;;10087426;28;20261;-79
2023/07/21 04:36:50;;;;;;;0.38;0.38;;;;;;;;;;10108455;28;20440;-76
2023/07/21 04:42:11;;;;;;;0.50;0.50;;;;;;;;;;10086077;28;20314;-80
2023/07/21 04:47:13;;;;;;;0.50;0.50;;;;;;;;;;10107912;28;20589;-77
2023/07/21 04:52:31;;;;;;;0.40;0.40;;;;;;;;;;10117474;28;20221;-79
2023/07/21 04:57:32;;;;;;;0.30;0.30;;;;;;;;;;10110233;28;20341;-79
2023/07/21 05:02:34;;;;;;;0.52;0.52;;;;;;;;;;10116843;28;20221;-79
2023/07/21 05:07:35;;;;;;;0.70;0.70;;;;;;;;;;10117209;28;21022;-80
2023/07/21 05:12:37;;;;;;;6.53;0.55;;;;;;;;;;10128342;28;20278;-77
2023/07/21 05:17:47;;;;;;;0.63;0.63;;;;;;;;;;10130018;28;20264;-81
2023/07/21 05:22:58;;;;;;;0.63;0.63;;;;;;;;;;10109186;28;20565;-82
2023/07/21 05:28:14;;;;;;;1.77;0.93;;;;;;;;;;10122592;28;20222;-81
2023/07/21 05:33:18;;;;;;;0.65;0.65;;;;;;;;;;10113170;28;20420;-79
2023/07/21 05:38:19;;;;;;;1.05;0.60;;;;;;;;;;10094892;28;20263;-80
2023/07/21 05:43:21;;;;;;;0.50;0.50;;;;;;;;;;10127963;28;20252;-80
2023/07/21 05:48:24;;;;;;;0.75;0.60;;;;;;;;;;10131209;28;20316;-77
2023/07/21 05:53:29;;;;;;;0.55;0.55;;;;;;;;;;10105248;28;20250;-79
2023/07/21 05:58:34;;;;;;;0.50;0.50;;;;;;;;;;10121959;28;20213;-76
2023/07/21 06:03:36;;;;;;;1.05;0.80;;;;;;;;;;10111086;28;21739;-72
2023/07/21 06:08:37;;;;;;;1.75;0.77;;;;;;;;;;10122522;28;20990;-73
2023/07/21 06:14:01;;;;;;;1.27;0.60;;;;;;;;;;10091048;28;20347;-73
2023/07/21 06:19:11;;;;;;;0.85;0.85;;;;;;;;;;10101954;28;21044;-74
2023/07/21 06:24:13;;;;;;;1.15;0.55;;;;;;;;;;10110626;28;20363;-74
2023/07/21 06:29:14;;;;;;;2.83;0.80;;;;;;;;;;10110697;28;21525;-72
2023/07/21 06:34:15;;;;;;;1.45;0.70;;;;;;;;;;10098007;28;21871;-73
2023/07/21 06:39:34;;;;;;;1.20;0.73;;;;;;;;;;10102701;28;20437;-72
2023/07/21 06:45:01;;;;;;;3.50;0.98;;;;;;;;;;10093474;28;22261;-75
2023/07/21 06:50:09;;;;;;;1.20;1.20;;;;;;;;;;10097526;28;20766;-74
2023/07/21 06:55:11;;;;;;;0.90;0.90;;;;;;;;;;10120766;28;20271;-75
2023/07/21 07:00:14;;;;;;;0.88;0.88;;;;;;;;;;10103438;28;21786;-73
2023/07/21 07:05:16;;;;;;;0.80;0.80;;;;;;;;;;10099207;28;22318;-74
2023/07/21 07:10:17;;;;;;;1.50;1.38;;;;;;;;;;10090592;28;20235;-74
2023/07/21 07:15:18;;;;;;;0.90;0.90;;;;;;;;;;10112851;28;20779;-73
2023/07/21 07:20:19;;;;;;;0.70;0.70;;;;;;;;;;10082359;28;21289;-73
2023/07/21 07:25:24;;;;;;;1.85;0.98;;;;;;;;;;10100063;28;20212;-74
2023/07/21 07:30:25;;;;;;;0.80;0.80;;;;;;;;;;10090004;28;20526;-73
2023/07/21 07:35:26;;;;;;;0.50;0.50;;;;;;;;;;10117777;28;20219;-74
2023/07/21 07:40:27;;;;;;;2.20;0.80;;;;;;;;;;10094961;28;20216;-75
2023/07/21 07:45:29;;;;;;;0.85;0.73;;;;;;;;;;10102901;28;20223;-73
2023/07/21 07:50:30;;;;;;;0.80;0.80;;;;;;;;;;10101168;28;20998;-73
2023/07/21 07:55:36;;;;;;;0.70;0.70;;;;;;;;;;10101348;28;20896;-74
2023/07/21 08:00:38;;;;;;;2.40;0.80;;;;;;;;;;10106541;28;20555;-73
2023/07/21 08:05:39;;;;;;;1.10;0.93;;;;;;;;;;10098487;28;20689;-73
2023/07/21 08:10:41;;;;;;;0.63;0.63;;;;;;;;;;10096795;28;20228;-73
2023/07/21 08:15:43;;;;;;;0.95;0.95;;;;;;;;;;10112303;28;20216;-71
2023/07/21 08:20:44;;;;;;;3.10;1.20;;;;;;;;;;10090437;28;21103;-73
2023/07/21 08:25:45;;;;;;;5.45;0.70;;;;;;;;;;10109052;28;20614;-75
2023/07/21 08:30:46;;;;;;;0.50;0.50;;;;;;;;;;10100665;28;20750;-72
2023/07/21 08:35:48;;;;;;;0.70;0.70;;;;;;;;;;10097570;28;20880;-74
2023/07/21 08:40:50;;;;;;;0.60;0.60;;;;;;;;;;10122614;28;20220;-71
2023/07/21 08:45:51;;;;;;;1.35;0.60;;;;;;;;;;10092580;28;20223;-73
2023/07/21 08:50:55;;;;;;;4.65;0.80;;;;;;;;;;10102664;28;20897;-73
2023/07/21 08:55:56;;;;;;;1.02;0.68;;;;;;;;;;10110870;28;20519;-73
2023/07/21 09:00:57;;;;;;;1.67;0.68;;;;;;;;;;10120372;28;20216;-74
2023/07/21 09:06:00;;;;;;;1.50;0.60;;;;;;;;;;10129799;28;22923;-73
2023/07/21 09:11:02;;;;;;;1.42;1.33;;;;;;;;;;10077379;28;21263;-73
2023/07/21 09:16:05;;;;;;;2.78;0.57;;;;;;;;;;10083166;28;21215;-73
2023/07/21 09:21:07;;;;;;;5.32;0.55;;;;;;;;;;10072140;28;20236;-74
2023/07/21 09:26:08;;;;;;;4.78;0.70;;;;;;;;;;10070264;28;20223;-73
2023/07/21 09:31:09;;;;;;;3.20;0.52;;;;;;;;;;10068658;28;20217;-74
2023/07/21 09:36:11;;;;;;;2.10;0.50;;;;;;;;;;10085927;28;20615;-74
2023/07/21 09:41:14;;;;;;;0.60;0.60;;;;;;;;;;10069823;28;20837;-71
2023/07/21 09:46:15;;;;;;;0.50;0.50;;;;;;;;;;10082176;28;21753;-70
2023/07/21 09:51:17;;;;;;;0.50;0.50;;;;;;;;;;10067349;28;21454;-74
2023/07/21 09:56:20;;;;;;;1.45;0.60;;;;;;;;;;10078201;28;20930;-73
2023/07/21 10:01:22;;;;;;;1.15;0.50;;;;;;;;;;10071037;28;20936;-72
2023/07/21 10:06:25;;;;;;;0.50;0.50;;;;;;;;;;10070139;28;20783;-71
2023/07/21 10:11:27;;;;;;;0.57;0.57;;;;;;;;;;10077342;28;20224;-74
2023/07/21 10:16:30;;;;;;;0.68;0.60;;;;;;;;;;10073119;28;20220;-72
2023/07/21 10:21:32;;;;;;;2.85;0.50;;;;;;;;;;10072022;28;20666;-69
2023/07/21 10:26:33;;;;;;;0.50;0.50;;;;;;;;;;10071661;28;20809;-71
2023/07/21 10:31:38;;;;;;;2.65;0.60;;;;;;;;;;10084591;28;20216;-72
2023/07/21 10:36:39;;;;;;;0.50;0.50;;;;;;;;;;10084673;28;21019;-72
2023/07/21 10:41:41;;;;;;;0.50;0.50;;;;;;;;;;10078632;28;20334;-72
2023/07/21 10:46:43;;;;;;;0.60;0.60;;;;;;;;;;10083569;28;20884;-73
2023/07/21 10:51:45;;;;;;;0.52;0.52;;;;;;;;;;10068529;28;20220;-73
2023/07/21 10:56:47;;;;;;;0.60;0.60;;;;;;;;;;10070723;28;20992;-72
2023/07/21 11:01:50;;;;;;;3.50;0.52;;;;;;;;;;10077939;28;20648;-72
2023/07/21 11:06:52;;;;;;;0.85;0.60;;;;;;;;;;10081738;28;20773;-74
2023/07/21 11:12:00;;;;;;;0.50;0.50;;;;;;;;;;10070550;28;20346;-72
2023/07/21 11:17:02;;;;;;;0.73;0.40;;;;;;;;;;10071011;28;20742;-74
2023/07/21 11:22:07;;;;;;;0.40;0.40;;;;;;;;;;10074817;28;20961;-73
2023/07/21 11:27:09;;;;;;;0.40;0.40;;;;;;;;;;10058994;28;20854;-71
2023/07/21 11:32:36;;;;;;;0.40;0.40;;;;;;;;;;10071379;28;21625;-72
2023/07/21 11:37:38;;;;;;;0.30;0.30;;;;;;;;;;10064893;28;21291;-73
2023/07/21 11:42:58;;;;;;;0.50;0.50;;;;;;;;;;10059166;28;20283;-73
2023/07/21 11:47:59;;;;;;;0.40;0.40;;;;;;;;;;10087692;28;20889;-75
2023/07/21 11:53:01;;;;;;;0.50;0.50;;;;;;;;;;10066064;28;20863;-73
2023/07/21 11:58:02;;;;;;;0.40;0.40;;;;;;;;;;10069810;28;20482;-73
2023/07/21 12:03:04;;;;;;;0.63;0.63;;;;;;;;;;10075575;28;20457;-73
2023/07/21 12:08:06;;;;;;;0.52;0.52;;;;;;;;;;10072623;28;20781;-72
2023/07/21 12:13:07;;;;;;;0.95;0.40;;;;;;;;;;10074088;28;20434;-73
2023/07/21 12:18:08;;;;;;;0.40;0.40;;;;;;;;;;10086737;28;20215;-74
2023/07/21 12:23:09;;;;;;;0.40;0.40;;;;;;;;;;10077535;28;20813;-71
2023/07/21 12:28:10;;;;;;;0.77;0.45;;;;;;;;;;10084581;28;23588;-73
2023/07/21 12:33:11;;;;;;;0.40;0.40;;;;;;;;;;10085292;28;20618;-73
2023/07/21 12:38:12;;;;;;;0.32;0.32;;;;;;;;;;10077422;28;21133;-74
2023/07/21 12:43:13;;;;;;;0.70;0.35;;;;;;;;;;10072376;28;21243;-74
2023/07/21 12:48:14;;;;;;;0.38;0.38;;;;;;;;;;10087162;28;20498;-73
2023/07/21 12:53:15;;;;;;;0.90;0.30;;;;;;;;;;10070572;28;20409;-73
2023/07/21 12:58:17;;;;;;;0.40;0.40;;;;;;;;;;10063494;28;20439;-74
2023/07/21 13:03:18;;;;;;;1.48;0.25;;;;;;;;;;10080585;28;20785;-75
2023/07/21 13:08:20;;;;;;;0.80;0.47;;;;;;;;;;10060199;28;20219;-71
2023/07/21 13:13:21;;;;;;;0.38;0.38;;;;;;;;;;10065485;28;23010;-74
2023/07/21 13:18:22;;;;;;;0.50;0.40;;;;;;;;;;10065481;28;20930;-72
2023/07/21 13:23:23;;;;;;;0.40;0.40;;;;;;;;;;10081046;28;20240;-71
2023/07/21 13:28:24;;;;;;;4.28;0.40;;;;;;;;;;10069467;28;20784;-73
2023/07/21 13:33:25;;;;;;;0.30;0.30;;;;;;;;;;10086429;28;20346;-73
2023/07/21 13:38:27;;;;;;;0.55;0.55;;;;;;;;;;10079341;28;20266;-74
2023/07/21 13:43:28;;;;;;;1.55;0.30;;;;;;;;;;10074859;28;21088;-74
2023/07/21 13:48:29;;;;;;;0.65;0.32;;;;;;;;;;10076459;28;20367;-72
2023/07/21 13:53:30;;;;;;;1.30;0.47;;;;;;;;;;10084543;28;21473;-72
2023/07/21 13:58:32;;;;;;;0.30;0.30;;;;;;;;;;10075737;28;20226;-73
2023/07/21 14:03:33;;;;;;;0.20;0.20;;;;;;;;;;10080022;28;20497;-73
2023/07/21 14:08:34;;;;;;;0.55;0.30;;;;;;;;;;10078407;28;20716;-73
2023/07/21 14:13:36;;;;;;;0.52;0.40;;;;;;;;;;10079142;28;20967;-74
2023/07/21 14:18:37;;;;;;;0.40;0.40;;;;;;;;;;10068158;28;21211;-74
2023/07/21 14:23:38;;;;;;;0.30;0.30;;;;;;;;;;10085938;28;20235;-74
2023/07/21 14:28:39;;;;;;;0.40;0.40;;;;;;;;;;10084346;28;20215;-74
2023/07/21 14:33:40;;;;;;;0.30;0.30;;;;;;;;;;10075253;28;20962;-73
2023/07/21 14:38:41;;;;;;;0.60;0.30;;;;;;;;;;10073832;28;22594;-74
2023/07/21 14:43:42;;;;;;;1.65;0.75;;;;;;;;;;10075071;28;20224;-73
2023/07/21 14:48:43;;;;;;;0.40;0.40;;;;;;;;;;10075286;28;20465;-73
2023/07/21 14:53:44;;;;;;;0.32;0.32;;;;;;;;;;10067922;28;21690;-73
2023/07/21 14:58:45;;;;;;;0.68;0.30;;;;;;;;;;10064706;28;20216;-72
2023/07/21 15:03:46;;;;;;;0.30;0.30;;;;;;;;;;10074685;28;22450;-72
2023/07/21 15:08:47;;;;;;;0.32;0.32;;;;;;;;;;10073862;28;20871;-74
2023/07/21 15:13:48;;;;;;;0.20;0.20;;;;;;;;;;10066240;28;20718;-72
2023/07/21 15:18:49;;;;;;;0.50;0.50;;;;;;;;;;10084346;28;20824;-74
2023/07/21 15:23:50;;;;;;;0.30;0.30;;;;;;;;;;10081191;28;21711;-72
2023/07/21 15:28:51;;;;;;;3.88;1.75;;;;;;;;;;10075257;28;20917;-72
2023/07/21 15:33:52;;;;;;;6.05;0.55;;;;;;;;;;10072438;28;20234;-73
2023/07/21 15:38:53;;;;;;;0.80;0.80;;;;;;;;;;10063376;28;20220;-73
2023/07/21 15:43:54;;;;;;;1.90;1.90;;;;;;;;;;10065088;28;21183;-73
2023/07/21 15:48:55;;;;;;;1.15;1.15;;;;;;;;;;10068192;28;20258;-74
2023/07/21 15:53:57;;;;;;;0.43;0.43;;;;;;;;;;10063194;28;20225;-75
2023/07/21 15:58:58;;;;;;;7.28;0.50;;;;;;;;;;10087718;28;20215;-74
2023/07/21 16:04:00;;;;;;;1.67;0.40;;;;;;;;;;10068426;28;21119;-73
2023/07/21 16:09:02;;;;;;;0.52;0.30;;;;;;;;;;10073202;28;20258;-74
2023/07/21 16:14:03;;;;;;;0.40;0.40;;;;;;;;;;10074079;28;20225;-71
2023/07/21 16:19:05;;;;;;;0.30;0.30;;;;;;;;;;10071966;28;20220;-72
2023/07/21 16:24:07;;;;;;;0.38;0.38;;;;;;;;;;10079192;28;21058;-73
2023/07/21 16:29:08;;;;;;;0.20;0.20;;;;;;;;;;10069369;28;20963;-73
2023/07/21 16:34:09;;;;;;;0.30;0.30;;;;;;;;;;10064588;28;22016;-73
2023/07/21 16:39:10;;;;;;;0.30;0.30;;;;;;;;;;10055339;28;20368;-73
2023/07/21 16:44:11;;;;;;;0.40;0.40;;;;;;;;;;10068632;28;20677;-73
2023/07/21 16:49:12;;;;;;;0.30;0.30;;;;;;;;;;10059898;28;21471;-73
2023/07/21 16:54:13;;;;;;;0.32;0.32;;;;;;;;;;10113905;28;20358;-73
2023/07/21 16:59:15;;;;;;;0.40;0.30;;;;;;;;;;10088389;28;20330;-73
2023/07/21 17:04:17;;;;;;;0.30;0.30;;;;;;;;;;10071285;28;21687;-75
2023/07/21 17:09:18;;;;;;;0.30;0.30;;;;;;;;;;10073207;28;22670;-73
2023/07/21 17:14:19;;;;;;;0.45;0.45;;;;;;;;;;10071151;28;23515;-76
2023/07/21 17:19:21;;;;;;;0.40;0.40;;;;;;;;;;10072066;28;20319;-72
2023/07/21 17:24:23;;;;;;;0.40;0.40;;;;;;;;;;10095730;28;20569;-70
2023/07/21 17:29:24;;;;;;;0.50;0.50;;;;;;;;;;10088364;28;20875;-73
2023/07/21 17:34:25;;;;;;;0.40;0.40;;;;;;;;;;10105842;28;20850;-73
2023/07/21 17:39:26;;;;;;;0.32;0.32;;;;;;;;;;10107423;28;20253;-73
2023/07/21 17:44:28;;;;;;;0.40;0.40;;;;;;;;;;10124329;28;20956;-75
2023/07/21 17:49:29;;;;;;;0.40;0.40;;;;;;;;;;10109722;28;20216;-73
2023/07/21 17:54:30;;;;;;;0.40;0.40;;;;;;;;;;10109821;28;20749;-75
2023/07/21 17:59:31;;;;;;;1.17;0.82;;;;;;;;;;10115781;28;20207;-72
2023/07/21 18:04:32;;;;;;;0.30;0.30;;;;;;;;;;10111773;28;20777;-75
2023/07/21 18:09:33;;;;;;;0.25;0.25;;;;;;;;;;10112044;28;20298;-73
2023/07/21 18:14:35;;;;;;;0.30;0.30;;;;;;;;;;10110062;28;21238;-73
2023/07/21 18:19:36;;;;;;;0.38;0.38;;;;;;;;;;10112899;28;20219;-75
2023/07/21 18:24:37;;;;;;;0.30;0.30;;;;;;;;;;10114243;28;20232;-76
2023/07/21 18:29:38;;;;;;;0.40;0.40;;;;;;;;;;10124592;28;21831;-74
2023/07/21 18:34:39;;;;;;;0.40;0.30;;;;;;;;;;10116421;28;20313;-74
2023/07/21 18:39:40;;;;;;;0.40;0.40;;;;;;;;;;10114537;28;20767;-75
2023/07/21 18:44:41;;;;;;;2.30;0.32;;;;;;;;;;10114034;28;20322;-75
2023/07/21 18:49:44;;;;;;;0.43;0.43;;;;;;;;;;10111974;28;21148;-76
2023/07/21 18:54:46;;;;;;;0.35;0.35;;;;;;;;;;10115128;28;20239;-75
2023/07/21 18:59:47;;;;;;;1.55;0.50;;;;;;;;;;10110954;28;20717;-75
2023/07/21 19:04:48;;;;;;;0.30;0.30;;;;;;;;;;10099239;28;20228;-74
2023/07/21 19:09:50;;;;;;;0.50;0.50;;;;;;;;;;10115345;28;21372;-75
2023/07/21 19:14:51;;;;;;;0.40;0.40;;;;;;;;;;10122243;28;20274;-75
2023/07/21 19:19:52;;;;;;;1.38;0.30;;;;;;;;;;10113653;28;20219;-74
2023/07/21 19:24:53;;;;;;;0.50;0.50;;;;;;;;;;10120392;28;20215;-73
2023/07/21 19:29:54;;;;;;;0.50;0.50;;;;;;;;;;10111235;28;20325;-75
2023/07/21 19:34:56;;;;;;;0.63;0.63;;;;;;;;;;10115287;28;20342;-75
2023/07/21 19:39:57;;;;;;;0.70;0.60;;;;;;;;;;10113588;28;20652;-74
2023/07/21 19:44:58;;;;;;;0.55;0.55;;;;;;;;;;10118321;28;21543;-74
2023/07/21 19:50:00;;;;;;;0.47;0.35;;;;;;;;;;10109911;28;20211;-73
2023/07/21 19:55:01;;;;;;;1.83;0.80;;;;;;;;;;10125869;28;20228;-73
2023/07/21 20:00:03;;;;;;;0.55;0.55;;;;;;;;;;10111172;28;20646;-74
2023/07/21 20:05:09;;;;;;;0.60;0.60;;;;;;;;;;10118700;28;20741;-74
2023/07/21 20:10:10;;;;;;;0.50;0.50;;;;;;;;;;10092659;28;21159;-73
2023/07/21 20:15:12;;;;;;;0.63;0.63;;;;;;;;;;10118007;28;20227;-73
2023/07/21 20:20:13;;;;;;;0.50;0.50;;;;;;;;;;10110692;28;21202;-75
2023/07/21 20:25:14;;;;;;;0.80;0.80;;;;;;;;;;10100223;28;20661;-73
2023/07/21 20:30:15;;;;;;;0.93;0.93;;;;;;;;;;10120732;28;20199;-74
2023/07/21 20:35:16;;;;;;;0.60;0.60;;;;;;;;;;10093752;28;20777;-74
2023/07/21 20:40:17;;;;;;;3.30;0.70;;;;;;;;;;10108161;28;20180;-73
2023/07/21 20:45:19;;;;;;;0.98;0.98;;;;;;;;;;10104097;28;20654;-73
2023/07/21 20:50:20;;;;;;;0.90;0.90;;;;;;;;;;10111506;28;20229;-74
2023/07/21 20:55:22;;;;;;;1.20;0.88;;;;;;;;;;10135941;28;20963;-74
2023/07/21 21:00:24;;;;;;;0.70;0.70;;;;;;;;;;10127753;28;21105;-74
2023/07/21 21:05:25;;;;;;;0.80;0.80;;;;;;;;;;10130058;28;20230;-74
2023/07/21 21:10:26;;;;;;;2.15;0.80;;;;;;;;;;10142648;28;20228;-73
2023/07/21 21:15:27;;;;;;;1.13;1.13;;;;;;;;;;10114709;28;20223;-73
2023/07/21 21:20:28;;;;;;;1.05;0.70;;;;;;;;;;10112654;28;21039;-73
2023/07/21 21:25:29;;;;;;;1.05;1.05;;;;;;;;;;10117987;28;21403;-74
2023/07/21 21:30:30;;;;;;;1.50;0.85;;;;;;;;;;10115863;28;20661;-73
2023/07/21 21:35:31;;;;;;;1.63;0.75;;;;;;;;;;10120778;28;20231;-74
2023/07/21 21:40:32;;;;;;;0.60;0.60;;;;;;;;;;10131421;28;20292;-73
2023/07/21 21:45:34;;;;;;;0.60;0.60;;;;;;;;;;10128786;28;20227;-74
2023/07/21 21:50:35;;;;;;;0.70;0.70;;;;;;;;;;10117836;28;20621;-73
2023/07/21 21:55:36;;;;;;;0.70;0.70;;;;;;;;;;10131606;28;20231;-72
2023/07/21 22:00:40;;;;;;;0.60;0.60;;;;;;;;;;10115472;28;20273;-73
2023/07/21 22:05:44;;;;;;;0.60;0.60;;;;;;;;;;10110647;28;20982;-71
2023/07/21 22:10:45;;;;;;;0.60;0.60;;;;;;;;;;10118040;28;20664;-71
2023/07/21 22:15:47;;;;;;;0.55;0.55;;;;;;;;;;10111798;28;20232;-72
2023/07/21 22:20:48;;;;;;;1.35;0.60;;;;;;;;;;10125985;28;20325;-71
2023/07/21 22:25:49;;;;;;;4.28;0.60;;;;;;;;;;10109139;28;20910;-72
2023/07/21 22:30:50;;;;;;;1.05;0.88;;;;;;;;;;10109695;28;21513;-72
2023/07/21 22:35:51;;;;;;;0.60;0.60;;;;;;;;;;10115383;28;21209;-74
2023/07/21 22:40:52;;;;;;;1.00;0.60;;;;;;;;;;10114839;28;20227;-71
2023/07/21 22:45:54;;;;;;;0.70;0.70;;;;;;;;;;10130047;28;20830;-74
2023/07/21 22:50:55;;;;;;;0.60;0.60;;;;;;;;;;10111737;28;20497;-73
2023/07/21 22:55:56;;;;;;;0.50;0.50;;;;;;;;;;10110969;28;20301;-71
2023/07/21 23:00:57;;;;;;;1.48;0.50;;;;;;;;;;10120727;28;20212;-73
2023/07/21 23:05:58;;;;;;;0.52;0.52;;;;;;;;;;10128117;28;20444;-73
2023/07/21 23:10:59;;;;;;;0.40;0.40;;;;;;;;;;10111973;28;20307;-73
2023/07/21 23:16:00;;;;;;;0.50;0.50;;;;;;;;;;10116244;28;20255;-73
2023/07/21 23:21:01;;;;;;;0.60;0.60;;;;;;;;;;10115594;28;21765;-73
2023/07/21 23:26:05;;;;;;;0.65;0.65;;;;;;;;;;10130807;28;21049;-73
2023/07/21 23:31:07;;;;;;;0.50;0.50;;;;;;;;;;10113810;28;21286;-73
2023/07/21 23:36:08;;;;;;;0.47;0.47;;;;;;;;;;10115171;28;20764;-71
2023/07/21 23:41:09;;;;;;;1.67;0.50;;;;;;;;;;10130695;28;20218;-72
2023/07/21 23:46:11;;;;;;;0.40;0.40;;;;;;;;;;10108100;28;22060;-74
2023/07/21 23:51:12;;;;;;;0.50;0.50;;;;;;;;;;10113598;28;20261;-73
2023/07/21 23:56:13;;;;;;;0.55;0.55;;;;;;;;;;10123060;28;20738;-74
